Aviation Digital Data Service (ADDS)

Output produced by METARs form (1224 UTC 15 November 2018)
found at http://www.aviationweather.gov/metar/data/
 
TAF SGAS 151009Z 1512/1612 VRB02KT CAVOK TX31/1519Z TN19/1609Z 
     BECMG 1515/1518 14008KT 9999 SCT027 
     BECMG 1521/1523 CAVOK
       
TAF SGES 151009Z 1512/1612 18007KT CAVOK TX31/1519Z TN18/1609Z 
     BECMG 1508/1511 20010KT 9999 BKN033 
     BECMG 1513/1516 15008KT CAVOK 
     BECMG 1518/1521 9999 SCT027
       
TAF SGCO 151009Z 1512/1612 00000KT CAVOK TX32/1519Z TN22/1609Z 
     BECMG 1515/1518 14010KT 9999 SCT027 
     BECMG 1519/1522 6000 SHRA SCT027 FEW040TCU